sensor_id;sensor_type;location;lat;lon;timestamp;P1;durP1;ratioP1;P2;durP2;ratioP2
46222;SDS011;31943;51.410;7.564;2023-06-05T00:02:11;4.05;;;1.50;;
46222;SDS011;31943;51.410;7.564;2023-06-05T00:04:37;2.70;;;1.45;;
46222;SDS011;31943;51.410;7.564;2023-06-05T00:07:04;5.03;;;1.60;;
46222;SDS011;31943;51.410;7.564;2023-06-05T00:09:30;2.53;;;1.75;;
46222;SDS011;31943;51.410;7.564;2023-06-05T00:11:56;2.55;;;1.80;;
46222;SDS011;31943;51.410;7.564;2023-06-05T00:14:21;2.65;;;1.60;;
46222;SDS011;31943;51.410;7.564;2023-06-05T00:16:47;2.50;;;1.83;;
46222;SDS011;31943;51.410;7.564;2023-06-05T00:19:13;2.80;;;1.60;;
46222;SDS011;31943;51.410;7.564;2023-06-05T00:21:38;3.05;;;1.70;;
46222;SDS011;31943;51.410;7.564;2023-06-05T00:24:06;3.42;;;1.77;;
46222;SDS011;31943;51.410;7.564;2023-06-05T00:26:31;3.35;;;1.50;;
46222;SDS011;31943;51.410;7.564;2023-06-05T00:28:57;2.00;;;1.40;;
46222;SDS011;31943;51.410;7.564;2023-06-05T00:31:22;5.07;;;2.13;;
46222;SDS011;31943;51.410;7.564;2023-06-05T00:33:48;2.33;;;1.58;;
46222;SDS011;31943;51.410;7.564;2023-06-05T00:36:14;3.38;;;1.80;;
46222;SDS011;31943;51.410;7.564;2023-06-05T00:38:40;4.38;;;1.83;;
46222;SDS011;31943;51.410;7.564;2023-06-05T00:41:07;2.00;;;1.63;;
46222;SDS011;31943;51.410;7.564;2023-06-05T00:43:32;2.53;;;1.85;;
46222;SDS011;31943;51.410;7.564;2023-06-05T00:46:00;3.58;;;1.77;;
46222;SDS011;31943;51.410;7.564;2023-06-05T00:48:28;3.88;;;2.17;;
46222;SDS011;31943;51.410;7.564;2023-06-05T00:50:54;5.43;;;2.00;;
46222;SDS011;31943;51.410;7.564;2023-06-05T00:53:21;2.92;;;1.80;;
46222;SDS011;31943;51.410;7.564;2023-06-05T00:55:47;3.30;;;2.00;;
46222;SDS011;31943;51.410;7.564;2023-06-05T00:58:14;3.70;;;1.83;;
46222;SDS011;31943;51.410;7.564;2023-06-05T01:00:40;2.55;;;1.63;;
46222;SDS011;31943;51.410;7.564;2023-06-05T01:03:05;4.22;;;2.10;;
46222;SDS011;31943;51.410;7.564;2023-06-05T01:05:33;5.05;;;2.10;;
46222;SDS011;31943;51.410;7.564;2023-06-05T01:07:59;8.65;;;2.30;;
46222;SDS011;31943;51.410;7.564;2023-06-05T01:10:24;5.38;;;1.88;;
46222;SDS011;31943;51.410;7.564;2023-06-05T01:12:53;3.92;;;2.10;;
46222;SDS011;31943;51.410;7.564;2023-06-05T01:15:31;4.70;;;2.38;;
46222;SDS011;31943;51.410;7.564;2023-06-05T01:17:59;3.15;;;2.03;;
46222;SDS011;31943;51.410;7.564;2023-06-05T01:20:33;6.32;;;2.15;;
46222;SDS011;31943;51.410;7.564;2023-06-05T01:23:00;2.67;;;1.80;;
46222;SDS011;31943;51.410;7.564;2023-06-05T01:25:26;4.80;;;2.30;;
46222;SDS011;31943;51.410;7.564;2023-06-05T01:27:54;2.80;;;2.05;;
46222;SDS011;31943;51.410;7.564;2023-06-05T01:30:26;3.30;;;2.00;;
46222;SDS011;31943;51.410;7.564;2023-06-05T01:32:56;3.58;;;1.77;;
46222;SDS011;31943;51.410;7.564;2023-06-05T01:35:25;3.17;;;1.73;;
46222;SDS011;31943;51.410;7.564;2023-06-05T01:37:52;3.45;;;1.73;;
46222;SDS011;31943;51.410;7.564;2023-06-05T01:40:21;4.00;;;2.00;;
46222;SDS011;31943;51.410;7.564;2023-06-05T01:42:48;3.33;;;1.77;;
46222;SDS011;31943;51.410;7.564;2023-06-05T01:45:16;2.20;;;1.80;;
46222;SDS011;31943;51.410;7.564;2023-06-05T01:47:42;2.85;;;2.03;;
46222;SDS011;31943;51.410;7.564;2023-06-05T01:50:09;3.08;;;2.00;;
46222;SDS011;31943;51.410;7.564;2023-06-05T01:52:35;4.72;;;2.30;;
46222;SDS011;31943;51.410;7.564;2023-06-05T01:55:01;3.75;;;1.90;;
46222;SDS011;31943;51.410;7.564;2023-06-05T01:57:29;5.22;;;1.92;;
46222;SDS011;31943;51.410;7.564;2023-06-05T01:59:54;4.13;;;1.95;;
46222;SDS011;31943;51.410;7.564;2023-06-05T02:02:20;4.35;;;1.88;;
46222;SDS011;31943;51.410;7.564;2023-06-05T02:04:47;2.38;;;1.90;;
46222;SDS011;31943;51.410;7.564;2023-06-05T02:07:12;3.50;;;2.22;;
46222;SDS011;31943;51.410;7.564;2023-06-05T02:09:38;3.53;;;2.10;;
46222;SDS011;31943;51.410;7.564;2023-06-05T02:12:05;3.13;;;2.33;;
46222;SDS011;31943;51.410;7.564;2023-06-05T02:14:33;6.15;;;2.00;;
46222;SDS011;31943;51.410;7.564;2023-06-05T02:16:58;3.03;;;2.03;;
46222;SDS011;31943;51.410;7.564;2023-06-05T02:19:25;3.53;;;1.90;;
46222;SDS011;31943;51.410;7.564;2023-06-05T02:21:51;2.38;;;1.90;;
46222;SDS011;31943;51.410;7.564;2023-06-05T02:24:18;5.65;;;2.05;;
46222;SDS011;31943;51.410;7.564;2023-06-05T02:26:43;4.93;;;1.83;;
46222;SDS011;31943;51.410;7.564;2023-06-05T02:29:09;3.38;;;1.90;;
46222;SDS011;31943;51.410;7.564;2023-06-05T02:31:37;3.72;;;2.05;;
46222;SDS011;31943;51.410;7.564;2023-06-05T02:34:02;4.32;;;1.95;;
46222;SDS011;31943;51.410;7.564;2023-06-05T02:36:28;3.90;;;2.10;;
46222;SDS011;31943;51.410;7.564;2023-06-05T02:38:54;5.25;;;2.30;;
46222;SDS011;31943;51.410;7.564;2023-06-05T02:41:20;4.90;;;2.35;;
46222;SDS011;31943;51.410;7.564;2023-06-05T02:43:45;3.25;;;2.22;;
46222;SDS011;31943;51.410;7.564;2023-06-05T02:46:12;4.25;;;2.28;;
46222;SDS011;31943;51.410;7.564;2023-06-05T02:48:39;4.57;;;2.10;;
46222;SDS011;31943;51.410;7.564;2023-06-05T02:51:05;3.05;;;2.45;;
46222;SDS011;31943;51.410;7.564;2023-06-05T02:53:31;3.38;;;2.60;;
46222;SDS011;31943;51.410;7.564;2023-06-05T02:55:57;4.43;;;2.40;;
46222;SDS011;31943;51.410;7.564;2023-06-05T02:58:22;3.90;;;2.13;;
46222;SDS011;31943;51.410;7.564;2023-06-05T03:00:48;3.28;;;2.20;;
46222;SDS011;31943;51.410;7.564;2023-06-05T03:03:14;4.43;;;2.45;;
46222;SDS011;31943;51.410;7.564;2023-06-05T03:05:41;3.28;;;2.03;;
46222;SDS011;31943;51.410;7.564;2023-06-05T03:08:07;5.60;;;2.40;;
46222;SDS011;31943;51.410;7.564;2023-06-05T03:10:32;3.33;;;2.30;;
46222;SDS011;31943;51.410;7.564;2023-06-05T03:13:00;3.38;;;2.10;;
46222;SDS011;31943;51.410;7.564;2023-06-05T03:15:25;1.95;;;1.73;;
46222;SDS011;31943;51.410;7.564;2023-06-05T03:17:51;3.60;;;2.40;;
46222;SDS011;31943;51.410;7.564;2023-06-05T03:20:17;4.28;;;2.28;;
46222;SDS011;31943;51.410;7.564;2023-06-05T03:22:44;5.80;;;2.50;;
46222;SDS011;31943;51.410;7.564;2023-06-05T03:25:10;3.30;;;2.47;;
46222;SDS011;31943;51.410;7.564;2023-06-05T03:27:36;5.90;;;2.25;;
46222;SDS011;31943;51.410;7.564;2023-06-05T03:30:02;5.03;;;2.85;;
46222;SDS011;31943;51.410;7.564;2023-06-05T03:32:28;3.63;;;2.45;;
46222;SDS011;31943;51.410;7.564;2023-06-05T03:34:53;3.20;;;2.08;;
46222;SDS011;31943;51.410;7.564;2023-06-05T03:37:19;4.70;;;2.70;;
46222;SDS011;31943;51.410;7.564;2023-06-05T03:39:46;3.20;;;2.55;;
46222;SDS011;31943;51.410;7.564;2023-06-05T03:42:12;4.63;;;2.60;;
46222;SDS011;31943;51.410;7.564;2023-06-05T03:44:37;3.35;;;2.30;;
46222;SDS011;31943;51.410;7.564;2023-06-05T03:47:03;4.50;;;1.88;;
46222;SDS011;31943;51.410;7.564;2023-06-05T03:49:29;4.15;;;2.38;;
46222;SDS011;31943;51.410;7.564;2023-06-05T03:51:56;3.80;;;2.22;;
46222;SDS011;31943;51.410;7.564;2023-06-05T03:54:22;4.75;;;2.47;;
46222;SDS011;31943;51.410;7.564;2023-06-05T03:56:49;3.97;;;2.33;;
46222;SDS011;31943;51.410;7.564;2023-06-05T03:59:16;8.30;;;2.78;;
46222;SDS011;31943;51.410;7.564;2023-06-05T04:01:41;3.42;;;2.35;;
46222;SDS011;31943;51.410;7.564;2023-06-05T04:04:07;5.30;;;2.22;;
46222;SDS011;31943;51.410;7.564;2023-06-05T04:06:33;4.55;;;2.22;;
46222;SDS011;31943;51.410;7.564;2023-06-05T04:08:58;3.63;;;2.38;;
46222;SDS011;31943;51.410;7.564;2023-06-05T04:11:25;4.50;;;2.55;;
46222;SDS011;31943;51.410;7.564;2023-06-05T04:13:53;4.47;;;2.55;;
46222;SDS011;31943;51.410;7.564;2023-06-05T04:16:18;5.10;;;2.80;;
46222;SDS011;31943;51.410;7.564;2023-06-05T04:18:44;4.60;;;2.60;;
46222;SDS011;31943;51.410;7.564;2023-06-05T04:21:10;5.93;;;2.30;;
46222;SDS011;31943;51.410;7.564;2023-06-05T04:23:35;3.63;;;2.33;;
46222;SDS011;31943;51.410;7.564;2023-06-05T04:26:01;8.07;;;2.67;;
46222;SDS011;31943;51.410;7.564;2023-06-05T04:28:27;4.60;;;2.70;;
46222;SDS011;31943;51.410;7.564;2023-06-05T04:30:54;6.40;;;2.50;;
46222;SDS011;31943;51.410;7.564;2023-06-05T04:33:20;5.00;;;2.60;;
46222;SDS011;31943;51.410;7.564;2023-06-05T04:35:45;7.82;;;2.53;;
46222;SDS011;31943;51.410;7.564;2023-06-05T04:38:11;4.30;;;2.45;;
46222;SDS011;31943;51.410;7.564;2023-06-05T04:40:37;4.57;;;2.58;;
46222;SDS011;31943;51.410;7.564;2023-06-05T04:43:04;4.10;;;2.85;;
46222;SDS011;31943;51.410;7.564;2023-06-05T04:45:30;6.80;;;3.05;;
46222;SDS011;31943;51.410;7.564;2023-06-05T04:47:58;3.80;;;2.65;;
46222;SDS011;31943;51.410;7.564;2023-06-05T04:50:24;3.25;;;2.03;;
46222;SDS011;31943;51.410;7.564;2023-06-05T04:52:53;4.40;;;2.42;;
46222;SDS011;31943;51.410;7.564;2023-06-05T04:55:20;3.50;;;2.60;;
46222;SDS011;31943;51.410;7.564;2023-06-05T04:57:45;6.63;;;3.40;;
46222;SDS011;31943;51.410;7.564;2023-06-05T05:00:12;4.78;;;2.92;;
46222;SDS011;31943;51.410;7.564;2023-06-05T05:02:38;4.45;;;2.95;;
46222;SDS011;31943;51.410;7.564;2023-06-05T05:05:06;3.55;;;2.80;;
46222;SDS011;31943;51.410;7.564;2023-06-05T05:07:32;4.85;;;3.17;;
46222;SDS011;31943;51.410;7.564;2023-06-05T05:09:58;4.90;;;3.10;;
46222;SDS011;31943;51.410;7.564;2023-06-05T05:12:24;4.75;;;3.78;;
46222;SDS011;31943;51.410;7.564;2023-06-05T05:14:49;4.20;;;3.70;;
46222;SDS011;31943;51.410;7.564;2023-06-05T05:17:15;7.25;;;4.15;;
46222;SDS011;31943;51.410;7.564;2023-06-05T05:19:41;6.20;;;4.30;;
46222;SDS011;31943;51.410;7.564;2023-06-05T05:22:08;5.78;;;4.63;;
46222;SDS011;31943;51.410;7.564;2023-06-05T05:24:34;11.02;;;4.72;;
46222;SDS011;31943;51.410;7.564;2023-06-05T05:26:59;8.27;;;4.53;;
46222;SDS011;31943;51.410;7.564;2023-06-05T05:29:25;6.78;;;4.75;;
46222;SDS011;31943;51.410;7.564;2023-06-05T05:31:50;8.50;;;5.22;;
46222;SDS011;31943;51.410;7.564;2023-06-05T05:34:16;8.38;;;4.72;;
46222;SDS011;31943;51.410;7.564;2023-06-05T05:36:42;9.07;;;5.82;;
46222;SDS011;31943;51.410;7.564;2023-06-05T05:39:09;8.88;;;6.25;;
46222;SDS011;31943;51.410;7.564;2023-06-05T05:41:34;12.00;;;7.78;;
46222;SDS011;31943;51.410;7.564;2023-06-05T05:44:00;12.57;;;8.18;;
46222;SDS011;31943;51.410;7.564;2023-06-05T05:46:26;8.68;;;6.50;;
46222;SDS011;31943;51.410;7.564;2023-06-05T05:48:51;9.10;;;5.55;;
46222;SDS011;31943;51.410;7.564;2023-06-05T05:51:17;6.93;;;5.40;;
46222;SDS011;31943;51.410;7.564;2023-06-05T05:53:42;8.82;;;5.57;;
46222;SDS011;31943;51.410;7.564;2023-06-05T05:56:10;7.78;;;5.20;;
46222;SDS011;31943;51.410;7.564;2023-06-05T05:58:36;6.55;;;4.47;;
46222;SDS011;31943;51.410;7.564;2023-06-05T06:01:02;7.88;;;5.05;;
46222;SDS011;31943;51.410;7.564;2023-06-05T06:03:27;7.32;;;4.70;;
46222;SDS011;31943;51.410;7.564;2023-06-05T06:05:53;7.00;;;4.25;;
46222;SDS011;31943;51.410;7.564;2023-06-05T06:08:19;7.80;;;4.95;;
46222;SDS011;31943;51.410;7.564;2023-06-05T06:10:44;5.68;;;4.85;;
46222;SDS011;31943;51.410;7.564;2023-06-05T06:13:12;8.45;;;4.93;;
46222;SDS011;31943;51.410;7.564;2023-06-05T06:15:38;5.32;;;4.78;;
46222;SDS011;31943;51.410;7.564;2023-06-05T06:18:03;8.52;;;4.35;;
46222;SDS011;31943;51.410;7.564;2023-06-05T06:20:29;7.45;;;4.72;;
46222;SDS011;31943;51.410;7.564;2023-06-05T06:22:55;5.97;;;4.88;;
46222;SDS011;31943;51.410;7.564;2023-06-05T06:25:21;10.32;;;5.15;;
46222;SDS011;31943;51.410;7.564;2023-06-05T06:27:47;8.32;;;5.53;;
46222;SDS011;31943;51.410;7.564;2023-06-05T06:30:14;10.80;;;5.32;;
46222;SDS011;31943;51.410;7.564;2023-06-05T06:32:40;5.97;;;4.65;;
46222;SDS011;31943;51.410;7.564;2023-06-05T06:35:06;9.60;;;4.93;;
46222;SDS011;31943;51.410;7.564;2023-06-05T06:37:32;9.23;;;5.05;;
46222;SDS011;31943;51.410;7.564;2023-06-05T06:39:57;6.40;;;4.72;;
46222;SDS011;31943;51.410;7.564;2023-06-05T06:42:23;10.85;;;5.45;;
46222;SDS011;31943;51.410;7.564;2023-06-05T06:44:49;9.15;;;4.95;;
46222;SDS011;31943;51.410;7.564;2023-06-05T06:47:16;7.60;;;5.22;;
46222;SDS011;31943;51.410;7.564;2023-06-05T06:49:42;5.78;;;4.82;;
46222;SDS011;31943;51.410;7.564;2023-06-05T06:52:07;7.78;;;5.32;;
46222;SDS011;31943;51.410;7.564;2023-06-05T06:54:33;8.00;;;5.10;;
46222;SDS011;31943;51.410;7.564;2023-06-05T06:56:59;6.35;;;4.88;;
46222;SDS011;31943;51.410;7.564;2023-06-05T06:59:24;7.25;;;4.80;;
46222;SDS011;31943;51.410;7.564;2023-06-05T07:04:35;8.15;;;4.47;;
46222;SDS011;31943;51.410;7.564;2023-06-05T07:07:01;8.32;;;4.43;;
46222;SDS011;31943;51.410;7.564;2023-06-05T07:09:28;7.57;;;4.50;;
46222;SDS011;31943;51.410;7.564;2023-06-05T07:11:54;8.38;;;4.78;;
46222;SDS011;31943;51.410;7.564;2023-06-05T07:14:19;6.65;;;4.53;;
46222;SDS011;31943;51.410;7.564;2023-06-05T07:16:46;8.70;;;4.88;;
46222;SDS011;31943;51.410;7.564;2023-06-05T07:21:39;6.22;;;4.57;;
46222;SDS011;31943;51.410;7.564;2023-06-05T07:24:05;6.05;;;3.97;;
46222;SDS011;31943;51.410;7.564;2023-06-05T07:26:31;6.70;;;4.43;;
46222;SDS011;31943;51.410;7.564;2023-06-05T07:28:56;5.45;;;4.22;;
46222;SDS011;31943;51.410;7.564;2023-06-05T07:31:22;11.15;;;5.38;;
46222;SDS011;31943;51.410;7.564;2023-06-05T07:33:48;6.20;;;3.72;;
46222;SDS011;31943;51.410;7.564;2023-06-05T07:36:14;4.70;;;3.60;;
46222;SDS011;31943;51.410;7.564;2023-06-05T07:38:41;5.57;;;3.90;;
46222;SDS011;31943;51.410;7.564;2023-06-05T07:41:08;4.97;;;4.15;;
46222;SDS011;31943;51.410;7.564;2023-06-05T07:43:36;8.70;;;4.07;;
46222;SDS011;31943;51.410;7.564;2023-06-05T07:46:02;6.95;;;3.55;;
46222;SDS011;31943;51.410;7.564;2023-06-05T07:48:28;5.25;;;3.90;;
46222;SDS011;31943;51.410;7.564;2023-06-05T07:50:54;5.05;;;3.30;;
46222;SDS011;31943;51.410;7.564;2023-06-05T07:53:20;5.63;;;3.65;;
46222;SDS011;31943;51.410;7.564;2023-06-05T07:55:47;4.63;;;3.33;;
46222;SDS011;31943;51.410;7.564;2023-06-05T07:58:13;5.88;;;4.18;;
46222;SDS011;31943;51.410;7.564;2023-06-05T08:00:39;8.02;;;3.83;;
46222;SDS011;31943;51.410;7.564;2023-06-05T08:03:05;5.88;;;3.20;;
46222;SDS011;31943;51.410;7.564;2023-06-05T08:05:30;5.93;;;3.85;;
46222;SDS011;31943;51.410;7.564;2023-06-05T08:07:56;5.75;;;3.40;;
46222;SDS011;31943;51.410;7.564;2023-06-05T08:10:22;5.15;;;3.58;;
46222;SDS011;31943;51.410;7.564;2023-06-05T08:12:49;3.97;;;3.50;;
46222;SDS011;31943;51.410;7.564;2023-06-05T08:15:15;4.50;;;3.17;;
46222;SDS011;31943;51.410;7.564;2023-06-05T08:17:41;4.55;;;3.65;;
46222;SDS011;31943;51.410;7.564;2023-06-05T08:20:07;5.63;;;4.75;;
46222;SDS011;31943;51.410;7.564;2023-06-05T08:22:33;5.93;;;3.58;;
46222;SDS011;31943;51.410;7.564;2023-06-05T08:24:59;7.05;;;3.10;;
46222;SDS011;31943;51.410;7.564;2023-06-05T08:27:25;4.88;;;3.15;;
46222;SDS011;31943;51.410;7.564;2023-06-05T08:29:53;4.70;;;3.92;;
46222;SDS011;31943;51.410;7.564;2023-06-05T08:32:18;6.93;;;3.83;;
46222;SDS011;31943;51.410;7.564;2023-06-05T08:34:44;5.55;;;3.58;;
46222;SDS011;31943;51.410;7.564;2023-06-05T08:37:10;5.78;;;4.05;;
46222;SDS011;31943;51.410;7.564;2023-06-05T08:39:35;5.70;;;3.83;;
46222;SDS011;31943;51.410;7.564;2023-06-05T08:42:01;4.95;;;3.17;;
46222;SDS011;31943;51.410;7.564;2023-06-05T08:44:27;5.40;;;3.20;;
46222;SDS011;31943;51.410;7.564;2023-06-05T08:46:59;8.70;;;4.13;;
46222;SDS011;31943;51.410;7.564;2023-06-05T08:49:27;6.78;;;3.95;;
46222;SDS011;31943;51.410;7.564;2023-06-05T08:51:56;6.55;;;4.00;;
46222;SDS011;31943;51.410;7.564;2023-06-05T08:54:25;4.70;;;3.53;;
46222;SDS011;31943;51.410;7.564;2023-06-05T08:56:52;5.03;;;3.40;;
46222;SDS011;31943;51.410;7.564;2023-06-05T08:59:18;9.50;;;3.88;;
46222;SDS011;31943;51.410;7.564;2023-06-05T09:01:46;5.13;;;3.30;;
46222;SDS011;31943;51.410;7.564;2023-06-05T09:04:13;3.78;;;2.78;;
46222;SDS011;31943;51.410;7.564;2023-06-05T09:06:39;7.32;;;3.72;;
46222;SDS011;31943;51.410;7.564;2023-06-05T09:09:05;6.22;;;3.35;;
46222;SDS011;31943;51.410;7.564;2023-06-05T09:11:31;8.50;;;3.05;;
46222;SDS011;31943;51.410;7.564;2023-06-05T09:13:58;3.92;;;3.35;;
46222;SDS011;31943;51.410;7.564;2023-06-05T09:16:32;5.05;;;3.10;;
46222;SDS011;31943;51.410;7.564;2023-06-05T09:18:58;4.93;;;3.30;;
46222;SDS011;31943;51.410;7.564;2023-06-05T09:21:26;7.28;;;3.30;;
46222;SDS011;31943;51.410;7.564;2023-06-05T09:23:53;5.05;;;2.55;;
46222;SDS011;31943;51.410;7.564;2023-06-05T09:26:19;4.95;;;2.83;;
46222;SDS011;31943;51.410;7.564;2023-06-05T09:28:52;8.75;;;3.10;;
46222;SDS011;31943;51.410;7.564;2023-06-05T09:31:18;5.35;;;3.08;;
46222;SDS011;31943;51.410;7.564;2023-06-05T09:33:45;3.90;;;2.42;;
46222;SDS011;31943;51.410;7.564;2023-06-05T09:36:19;5.53;;;2.75;;
46222;SDS011;31943;51.410;7.564;2023-06-05T09:38:47;3.65;;;3.00;;
46222;SDS011;31943;51.410;7.564;2023-06-05T09:41:13;6.63;;;2.65;;
46222;SDS011;31943;51.410;7.564;2023-06-05T09:43:39;4.65;;;3.15;;
46222;SDS011;31943;51.410;7.564;2023-06-05T09:46:06;5.18;;;2.80;;
46222;SDS011;31943;51.410;7.564;2023-06-05T09:48:32;4.70;;;2.53;;
46222;SDS011;31943;51.410;7.564;2023-06-05T09:51:05;6.88;;;2.97;;
46222;SDS011;31943;51.410;7.564;2023-06-05T09:53:33;6.03;;;2.75;;
46222;SDS011;31943;51.410;7.564;2023-06-05T09:56:01;6.13;;;2.65;;
46222;SDS011;31943;51.410;7.564;2023-06-05T09:58:28;3.47;;;2.53;;
46222;SDS011;31943;51.410;7.564;2023-06-05T10:00:54;4.05;;;2.67;;
46222;SDS011;31943;51.410;7.564;2023-06-05T10:03:20;4.22;;;2.60;;
46222;SDS011;31943;51.410;7.564;2023-06-05T10:05:46;5.88;;;2.70;;
46222;SDS011;31943;51.410;7.564;2023-06-05T10:08:12;8.05;;;2.70;;
46222;SDS011;31943;51.410;7.564;2023-06-05T10:10:40;4.35;;;2.40;;
46222;SDS011;31943;51.410;7.564;2023-06-05T10:13:09;4.10;;;2.60;;
46222;SDS011;31943;51.410;7.564;2023-06-05T10:15:35;8.02;;;6.07;;
46222;SDS011;31943;51.410;7.564;2023-06-05T10:18:03;4.72;;;2.67;;
46222;SDS011;31943;51.410;7.564;2023-06-05T10:20:29;5.38;;;2.50;;
46222;SDS011;31943;51.410;7.564;2023-06-05T10:22:57;3.80;;;2.58;;
46222;SDS011;31943;51.410;7.564;2023-06-05T10:25:23;4.75;;;2.80;;
46222;SDS011;31943;51.410;7.564;2023-06-05T10:27:54;5.57;;;2.83;;
46222;SDS011;31943;51.410;7.564;2023-06-05T10:30:36;2.83;;;2.30;;
46222;SDS011;31943;51.410;7.564;2023-06-05T10:33:23;7.00;;;2.30;;
46222;SDS011;31943;51.410;7.564;2023-06-05T10:35:59;2.75;;;2.40;;
46222;SDS011;31943;51.410;7.564;2023-06-05T10:38:34;4.55;;;2.40;;
46222;SDS011;31943;51.410;7.564;2023-06-05T10:41:01;3.13;;;2.20;;
46222;SDS011;31943;51.410;7.564;2023-06-05T10:43:30;6.35;;;2.53;;
46222;SDS011;31943;51.410;7.564;2023-06-05T10:45:59;4.57;;;2.67;;
46222;SDS011;31943;51.410;7.564;2023-06-05T10:51:34;2.70;;;2.20;;
46222;SDS011;31943;51.410;7.564;2023-06-05T10:54:01;5.45;;;2.50;;
46222;SDS011;31943;51.410;7.564;2023-06-05T10:59:18;4.65;;;2.17;;
46222;SDS011;31943;51.410;7.564;2023-06-05T11:01:46;5.70;;;1.95;;
46222;SDS011;31943;51.410;7.564;2023-06-05T11:05:04;5.20;;;2.20;;
46222;SDS011;31943;51.410;7.564;2023-06-05T11:07:31;3.92;;;2.15;;
46222;SDS011;31943;51.410;7.564;2023-06-05T11:10:04;6.20;;;2.20;;
46222;SDS011;31943;51.410;7.564;2023-06-05T11:15:34;4.57;;;1.85;;
46222;SDS011;31943;51.410;7.564;2023-06-05T11:20:59;5.65;;;1.92;;
46222;SDS011;31943;51.410;7.564;2023-06-05T11:23:26;4.30;;;1.95;;
46222;SDS011;31943;51.410;7.564;2023-06-05T11:25:54;3.20;;;1.83;;
46222;SDS011;31943;51.410;7.564;2023-06-05T11:31:09;5.13;;;2.10;;
46222;SDS011;31943;51.410;7.564;2023-06-05T11:33:36;4.63;;;2.08;;
46222;SDS011;31943;51.410;7.564;2023-06-05T11:36:03;4.10;;;1.90;;
46222;SDS011;31943;51.410;7.564;2023-06-05T11:38:30;4.47;;;1.80;;
46222;SDS011;31943;51.410;7.564;2023-06-05T11:40:55;2.25;;;1.70;;
46222;SDS011;31943;51.410;7.564;2023-06-05T11:43:21;3.25;;;1.70;;
46222;SDS011;31943;51.410;7.564;2023-06-05T11:45:48;4.13;;;1.67;;
46222;SDS011;31943;51.410;7.564;2023-06-05T11:48:15;3.90;;;1.50;;
46222;SDS011;31943;51.410;7.564;2023-06-05T11:50:52;3.65;;;1.70;;
46222;SDS011;31943;51.410;7.564;2023-06-05T11:53:21;2.87;;;1.70;;
46222;SDS011;31943;51.410;7.564;2023-06-05T11:55:47;5.25;;;2.08;;
46222;SDS011;31943;51.410;7.564;2023-06-05T11:58:19;2.78;;;1.42;;
46222;SDS011;31943;51.410;7.564;2023-06-05T12:00:46;2.97;;;1.83;;
46222;SDS011;31943;51.410;7.564;2023-06-05T12:03:16;2.55;;;1.40;;
46222;SDS011;31943;51.410;7.564;2023-06-05T12:05:42;5.63;;;1.80;;
46222;SDS011;31943;51.410;7.564;2023-06-05T12:08:25;2.55;;;1.55;;
46222;SDS011;31943;51.410;7.564;2023-06-05T12:10:51;2.35;;;1.92;;
46222;SDS011;31943;51.410;7.564;2023-06-05T12:13:17;3.13;;;1.75;;
46222;SDS011;31943;51.410;7.564;2023-06-05T12:15:55;3.10;;;1.65;;
46222;SDS011;31943;51.410;7.564;2023-06-05T12:18:21;5.10;;;1.75;;
46222;SDS011;31943;51.410;7.564;2023-06-05T12:20:56;4.32;;;1.63;;
46222;SDS011;31943;51.410;7.564;2023-06-05T12:23:21;3.83;;;2.00;;
46222;SDS011;31943;51.410;7.564;2023-06-05T12:25:59;3.60;;;1.80;;
46222;SDS011;31943;51.410;7.564;2023-06-05T12:28:25;2.70;;;1.60;;
46222;SDS011;31943;51.410;7.564;2023-06-05T12:30:50;3.22;;;1.83;;
46222;SDS011;31943;51.410;7.564;2023-06-05T12:33:16;4.53;;;1.95;;
46222;SDS011;31943;51.410;7.564;2023-06-05T12:35:42;2.58;;;1.70;;
46222;SDS011;31943;51.410;7.564;2023-06-05T12:38:08;4.05;;;1.65;;
46222;SDS011;31943;51.410;7.564;2023-06-05T12:40:33;4.88;;;1.98;;
46222;SDS011;31943;51.410;7.564;2023-06-05T12:43:00;4.15;;;1.70;;
46222;SDS011;31943;51.410;7.564;2023-06-05T12:45:26;3.25;;;2.10;;
46222;SDS011;31943;51.410;7.564;2023-06-05T12:47:51;2.92;;;1.88;;
46222;SDS011;31943;51.410;7.564;2023-06-05T12:50:17;3.28;;;2.30;;
46222;SDS011;31943;51.410;7.564;2023-06-05T12:52:44;2.08;;;1.73;;
46222;SDS011;31943;51.410;7.564;2023-06-05T12:55:10;2.88;;;1.50;;
46222;SDS011;31943;51.410;7.564;2023-06-05T12:57:36;5.38;;;1.90;;
46222;SDS011;31943;51.410;7.564;2023-06-05T13:00:05;3.05;;;1.73;;
46222;SDS011;31943;51.410;7.564;2023-06-05T13:02:32;2.08;;;1.70;;
46222;SDS011;31943;51.410;7.564;2023-06-05T13:04:58;3.45;;;1.55;;
46222;SDS011;31943;51.410;7.564;2023-06-05T13:07:24;3.22;;;1.77;;
46222;SDS011;31943;51.410;7.564;2023-06-05T13:09:49;4.05;;;1.75;;
46222;SDS011;31943;51.410;7.564;2023-06-05T13:12:15;3.03;;;1.80;;
46222;SDS011;31943;51.410;7.564;2023-06-05T13:14:40;3.92;;;2.20;;
46222;SDS011;31943;51.410;7.564;2023-06-05T13:17:08;4.95;;;1.80;;
46222;SDS011;31943;51.410;7.564;2023-06-05T13:19:33;3.78;;;2.45;;
46222;SDS011;31943;51.410;7.564;2023-06-05T13:21:59;2.85;;;1.55;;
46222;SDS011;31943;51.410;7.564;2023-06-05T13:24:25;3.17;;;1.70;;
46222;SDS011;31943;51.410;7.564;2023-06-05T13:26:50;2.58;;;1.50;;
46222;SDS011;31943;51.410;7.564;2023-06-05T13:29:16;2.65;;;1.55;;
46222;SDS011;31943;51.410;7.564;2023-06-05T13:31:42;3.22;;;1.75;;
46222;SDS011;31943;51.410;7.564;2023-06-05T13:34:09;4.63;;;1.60;;
46222;SDS011;31943;51.410;7.564;2023-06-05T13:36:35;2.90;;;1.60;;
46222;SDS011;31943;51.410;7.564;2023-06-05T13:39:01;2.70;;;1.77;;
46222;SDS011;31943;51.410;7.564;2023-06-05T13:41:26;2.90;;;1.65;;
46222;SDS011;31943;51.410;7.564;2023-06-05T13:43:53;4.93;;;1.65;;
46222;SDS011;31943;51.410;7.564;2023-06-05T13:46:19;5.90;;;1.42;;
46222;SDS011;31943;51.410;7.564;2023-06-05T13:48:44;2.88;;;1.55;;
46222;SDS011;31943;51.410;7.564;2023-06-05T13:51:12;4.60;;;1.50;;
46222;SDS011;31943;51.410;7.564;2023-06-05T13:53:37;4.63;;;1.70;;
46222;SDS011;31943;51.410;7.564;2023-06-05T13:56:03;3.83;;;1.88;;
46222;SDS011;31943;51.410;7.564;2023-06-05T13:58:29;2.85;;;1.67;;
46222;SDS011;31943;51.410;7.564;2023-06-05T14:00:58;2.97;;;1.60;;
46222;SDS011;31943;51.410;7.564;2023-06-05T14:03:24;3.80;;;1.67;;
46222;SDS011;31943;51.410;7.564;2023-06-05T14:05:50;2.53;;;1.50;;
46222;SDS011;31943;51.410;7.564;2023-06-05T14:08:18;3.45;;;1.60;;
46222;SDS011;31943;51.410;7.564;2023-06-05T14:10:45;3.92;;;2.08;;
46222;SDS011;31943;51.410;7.564;2023-06-05T14:13:11;3.33;;;1.50;;
46222;SDS011;31943;51.410;7.564;2023-06-05T14:15:38;5.63;;;1.80;;
46222;SDS011;31943;51.410;7.564;2023-06-05T14:18:05;5.45;;;2.03;;
46222;SDS011;31943;51.410;7.564;2023-06-05T14:20:31;3.38;;;1.88;;
46222;SDS011;31943;51.410;7.564;2023-06-05T14:22:57;3.35;;;1.83;;
46222;SDS011;31943;51.410;7.564;2023-06-05T14:25:25;4.47;;;2.20;;
46222;SDS011;31943;51.410;7.564;2023-06-05T14:27:53;2.72;;;1.90;;
46222;SDS011;31943;51.410;7.564;2023-06-05T14:30:19;3.95;;;2.28;;
46222;SDS011;31943;51.410;7.564;2023-06-05T14:32:45;5.68;;;2.20;;
46222;SDS011;31943;51.410;7.564;2023-06-05T14:35:10;3.53;;;1.80;;
46222;SDS011;31943;51.410;7.564;2023-06-05T14:37:36;4.47;;;1.90;;
46222;SDS011;31943;51.410;7.564;2023-06-05T14:40:02;2.33;;;1.70;;
46222;SDS011;31943;51.410;7.564;2023-06-05T14:42:29;3.33;;;1.80;;
46222;SDS011;31943;51.410;7.564;2023-06-05T14:44:55;2.58;;;1.63;;
46222;SDS011;31943;51.410;7.564;2023-06-05T14:47:22;4.13;;;1.98;;
46222;SDS011;31943;51.410;7.564;2023-06-05T14:49:48;2.97;;;2.17;;
46222;SDS011;31943;51.410;7.564;2023-06-05T14:52:14;7.45;;;1.90;;
46222;SDS011;31943;51.410;7.564;2023-06-05T14:54:40;2.60;;;1.90;;
46222;SDS011;31943;51.410;7.564;2023-06-05T14:57:06;6.82;;;2.13;;
46222;SDS011;31943;51.410;7.564;2023-06-05T14:59:34;4.35;;;2.00;;
46222;SDS011;31943;51.410;7.564;2023-06-05T15:01:59;3.03;;;2.10;;
46222;SDS011;31943;51.410;7.564;2023-06-05T15:04:25;2.28;;;2.00;;
46222;SDS011;31943;51.410;7.564;2023-06-05T15:06:51;3.17;;;2.20;;